createdAt,value
2023-09-17T00:00:25.009Z,12.70
2023-09-17T00:03:33.873Z,11.80
2023-09-17T00:06:22.457Z,11.20
2023-09-17T00:09:11.146Z,11.10
2023-09-17T00:12:00.729Z,13.40
2023-09-17T00:14:49.936Z,14.30
2023-09-17T00:17:38.502Z,14.30
2023-09-17T00:20:27.071Z,14.50
2023-09-17T00:23:15.674Z,12.90
2023-09-17T00:26:04.742Z,13.40
2023-09-17T00:28:53.640Z,12.70
2023-09-17T00:31:42.270Z,11.00
2023-09-17T00:34:31.467Z,14.90
2023-09-17T00:37:20.080Z,13.10
2023-09-17T00:40:12.371Z,13.30
2023-09-17T00:43:01.328Z,14.10
2023-09-17T00:45:49.922Z,13.80
2023-09-17T00:48:38.597Z,15.10
2023-09-17T00:51:27.699Z,14.20
2023-09-17T00:54:16.955Z,15.10
2023-09-17T00:57:05.580Z,12.20
2023-09-17T00:59:54.196Z,13.40
2023-09-17T01:03:13.844Z,13.50
2023-09-17T01:06:04.281Z,13.10
2023-09-17T01:08:53.123Z,15.00
2023-09-17T01:11:42.638Z,15.10
2023-09-17T01:14:34.039Z,12.30
2023-09-17T01:17:27.796Z,13.90
2023-09-17T01:20:31.321Z,14.70
2023-09-17T01:23:48.345Z,12.10
2023-09-17T01:26:40.590Z,11.30
2023-09-17T01:29:35.926Z,12.20
2023-09-17T01:32:25.573Z,13.20
2023-09-17T01:35:16.653Z,13.10
2023-09-17T01:40:56.126Z,12.60
2023-09-17T01:43:45.886Z,13.70
2023-09-17T01:46:36.336Z,13.90
2023-09-17T01:49:25.885Z,12.20
2023-09-17T01:52:16.022Z,13.00
2023-09-17T01:55:05.296Z,11.00
2023-09-17T01:57:53.850Z,12.80
2023-09-17T02:00:42.377Z,15.10
2023-09-17T02:03:32.334Z,11.20
2023-09-17T02:06:20.992Z,15.00
2023-09-17T02:09:10.107Z,12.80
2023-09-17T02:11:58.657Z,13.10
2023-09-17T02:14:47.271Z,10.60
2023-09-17T02:17:35.886Z,10.40
2023-09-17T02:20:25.532Z,11.80
2023-09-17T02:23:14.047Z,11.80
2023-09-17T02:26:02.681Z,14.80
2023-09-17T02:28:51.337Z,15.90
2023-09-17T02:31:39.962Z,14.10
2023-09-17T02:34:28.646Z,12.70
2023-09-17T02:37:17.191Z,14.10
2023-09-17T02:40:10.280Z,12.20
2023-09-17T02:42:59.201Z,13.80
2023-09-17T02:45:47.779Z,12.10
2023-09-17T02:48:36.299Z,14.10
2023-09-17T02:51:24.878Z,12.60
2023-09-17T02:54:13.483Z,12.50
2023-09-17T02:57:02.194Z,13.70
2023-09-17T02:59:50.748Z,13.90
2023-09-17T03:02:44.452Z,13.40
2023-09-17T03:05:33.281Z,13.10
2023-09-17T03:08:21.899Z,13.10
2023-09-17T03:11:15.046Z,13.50
2023-09-17T03:14:05.238Z,14.30
2023-09-17T03:16:54.188Z,13.40
2023-09-17T03:19:43.989Z,14.50
2023-09-17T03:22:32.892Z,13.30
2023-09-17T03:25:21.546Z,12.40
2023-09-17T03:28:13.066Z,13.60
2023-09-17T03:31:02.672Z,12.40
2023-09-17T03:33:52.056Z,11.20
2023-09-17T03:36:40.868Z,15.20
2023-09-17T03:39:29.618Z,11.30
2023-09-17T03:42:18.296Z,12.30
2023-09-17T03:45:10.867Z,12.50
2023-09-17T03:47:59.734Z,12.40
2023-09-17T03:50:50.534Z,13.00
2023-09-17T03:53:39.531Z,10.20
2023-09-17T03:56:28.649Z,14.90
2023-09-17T03:59:17.728Z,11.50
2023-09-17T04:02:06.425Z,13.50
2023-09-17T04:04:55.091Z,12.80
2023-09-17T04:07:47.737Z,13.00
2023-09-17T04:10:36.516Z,14.10
2023-09-17T04:13:25.433Z,15.40
2023-09-17T04:16:14.009Z,12.30
2023-09-17T04:19:02.721Z,11.10
2023-09-17T04:21:51.335Z,13.80
2023-09-17T04:24:40.189Z,26.00
2023-09-17T04:27:28.707Z,18.60
2023-09-17T04:30:18.131Z,23.20
2023-09-17T04:33:06.853Z,13.50
2023-09-17T04:35:57.526Z,18.00
2023-09-17T04:38:46.513Z,13.40
2023-09-17T04:41:36.272Z,12.60
2023-09-17T04:44:25.096Z,12.10
2023-09-17T04:47:14.009Z,11.30
2023-09-17T04:50:03.982Z,13.90
2023-09-17T04:52:52.797Z,12.40
2023-09-17T04:55:41.460Z,17.50
2023-09-17T04:58:30.125Z,13.20
2023-09-17T05:01:19.488Z,15.60
2023-09-17T05:04:08.662Z,16.00
2023-09-17T05:06:57.348Z,19.50
2023-09-17T05:09:47.763Z,14.50
2023-09-17T05:12:36.363Z,16.60
2023-09-17T05:15:25.002Z,17.10
2023-09-17T05:18:14.456Z,17.00
2023-09-17T05:21:07.551Z,16.80
2023-09-17T05:23:56.645Z,16.00
2023-09-17T05:26:45.170Z,12.90
2023-09-17T05:29:34.347Z,15.20
2023-09-17T05:32:23.132Z,16.70
2023-09-17T05:35:11.814Z,15.80
2023-09-17T05:38:00.462Z,14.00
2023-09-17T05:40:49.186Z,12.50
2023-09-17T05:43:39.296Z,13.90
2023-09-17T05:46:27.980Z,12.50
2023-09-17T05:49:16.583Z,12.60
2023-09-17T05:52:05.225Z,15.30
2023-09-17T05:54:54.501Z,14.90
2023-09-17T05:57:44.031Z,14.70
2023-09-17T06:00:32.941Z,14.20
2023-09-17T06:03:21.759Z,19.00
2023-09-17T06:06:10.358Z,12.50
2023-09-17T06:08:58.923Z,12.30
2023-09-17T06:11:51.123Z,12.10
2023-09-17T06:14:40.685Z,12.10
2023-09-17T06:17:29.530Z,12.90
2023-09-17T06:20:18.969Z,11.10
2023-09-17T06:23:07.690Z,12.80
2023-09-17T06:25:56.305Z,12.90
2023-09-17T06:28:44.952Z,12.20
2023-09-17T06:31:34.027Z,10.50
2023-09-17T06:34:22.872Z,14.20
2023-09-17T06:37:11.610Z,14.20
2023-09-17T06:40:00.340Z,10.00
2023-09-17T06:42:49.452Z,13.60
2023-09-17T06:45:38.570Z,11.00
2023-09-17T06:48:28.605Z,11.20
2023-09-17T06:51:17.269Z,11.20
2023-09-17T06:54:06.036Z,11.50
2023-09-17T06:56:55.120Z,13.10
2023-09-17T06:59:43.652Z,11.00
2023-09-17T07:02:32.163Z,12.40
2023-09-17T07:05:21.509Z,10.60
2023-09-17T07:08:10.109Z,10.70
2023-09-17T07:10:58.681Z,13.90
2023-09-17T07:13:47.363Z,9.40
2023-09-17T07:16:40.915Z,9.30
2023-09-17T07:19:29.741Z,9.60
2023-09-17T07:22:18.438Z,11.10
2023-09-17T07:25:07.123Z,9.30
2023-09-17T07:27:55.748Z,11.40
2023-09-17T07:30:44.310Z,11.20
2023-09-17T07:33:33.034Z,9.80
2023-09-17T07:36:21.731Z,9.50
2023-09-17T07:39:10.473Z,8.60
2023-09-17T07:41:59.081Z,8.20
2023-09-17T07:44:47.799Z,17.30
2023-09-17T07:47:36.433Z,9.40
2023-09-17T07:50:25.137Z,8.00
2023-09-17T07:53:13.655Z,8.20
2023-09-17T07:56:02.790Z,8.30
2023-09-17T07:58:51.394Z,7.80
2023-09-17T08:01:39.968Z,10.20
2023-09-17T08:04:28.659Z,9.30
2023-09-17T08:07:18.264Z,8.10
2023-09-17T08:10:08.014Z,10.00
2023-09-17T08:12:56.650Z,7.40
2023-09-17T08:15:47.754Z,13.60
2023-09-17T08:18:36.272Z,8.60
2023-09-17T08:21:25.106Z,8.60
2023-09-17T08:24:15.682Z,8.40
2023-09-17T08:27:05.748Z,10.70
2023-09-17T08:29:54.299Z,7.80
2023-09-17T08:32:44.709Z,10.00
2023-09-17T08:35:33.293Z,9.60
2023-09-17T08:38:21.887Z,10.70
2023-09-17T08:41:10.945Z,8.60
2023-09-17T08:43:59.893Z,18.40
2023-09-17T08:46:53.067Z,16.60
2023-09-17T08:49:42.223Z,18.10
2023-09-17T08:52:34.222Z,25.60
2023-09-17T08:55:23.179Z,7.40
2023-09-17T08:58:15.992Z,12.30
2023-09-17T09:01:08.107Z,7.60
2023-09-17T09:03:58.124Z,7.70
2023-09-17T09:06:47.602Z,6.60
2023-09-17T09:09:37.454Z,6.40
2023-09-17T09:12:27.785Z,6.20
2023-09-17T09:15:16.543Z,6.60
2023-09-17T09:18:05.525Z,5.40
2023-09-17T09:20:54.024Z,6.90
2023-09-17T09:23:42.711Z,6.50
2023-09-17T09:26:35.534Z,5.80
2023-09-17T09:29:24.039Z,5.00
2023-09-17T09:32:13.992Z,6.00
2023-09-17T09:35:02.927Z,5.10
2023-09-17T09:37:52.462Z,6.70
2023-09-17T09:40:43.587Z,6.00
2023-09-17T09:43:33.357Z,6.90
2023-09-17T09:46:23.072Z,7.50
2023-09-17T09:49:11.701Z,7.70
2023-09-17T09:52:00.535Z,7.00
2023-09-17T09:54:49.144Z,6.00
2023-09-17T09:57:40.870Z,4.40
2023-09-17T10:00:30.705Z,15.60
2023-09-17T10:03:20.830Z,12.30
2023-09-17T10:06:09.465Z,5.50
2023-09-17T10:09:00.382Z,4.60
2023-09-17T10:11:49.487Z,5.60
2023-09-17T10:14:39.325Z,3.80
2023-09-17T10:17:28.230Z,4.60
2023-09-17T10:20:19.589Z,3.80
2023-09-17T10:23:08.954Z,3.90
2023-09-17T10:26:00.605Z,6.70
2023-09-17T10:28:51.493Z,3.90
2023-09-17T10:31:42.555Z,3.40
2023-09-17T10:34:36.723Z,4.20
2023-09-17T10:37:27.322Z,4.50
2023-09-17T10:40:16.758Z,4.50
2023-09-17T10:43:07.413Z,6.00
2023-09-17T10:45:56.610Z,4.20
2023-09-17T10:48:46.040Z,5.70
2023-09-17T10:51:34.989Z,4.50
2023-09-17T10:54:23.601Z,4.60
2023-09-17T10:57:24.819Z,3.90
2023-09-17T11:00:18.628Z,3.80
2023-09-17T11:03:08.223Z,5.50
2023-09-17T11:05:58.669Z,4.70
2023-09-17T11:08:48.280Z,4.00
2023-09-17T11:11:36.898Z,3.90
2023-09-17T11:14:25.517Z,5.10
2023-09-17T11:17:19.218Z,4.40
2023-09-17T11:20:15.081Z,3.20
2023-09-17T11:23:05.289Z,4.90
2023-09-17T11:25:56.137Z,3.30
2023-09-17T11:28:44.850Z,4.20
2023-09-17T11:31:52.572Z,3.80
2023-09-17T11:34:44.757Z,3.10
2023-09-17T11:37:33.438Z,3.20
2023-09-17T11:40:22.010Z,6.30
2023-09-17T11:43:14.162Z,2.70
2023-09-17T11:46:12.252Z,3.90
2023-09-17T11:49:00.976Z,4.80
2023-09-17T11:51:50.316Z,3.10
2023-09-17T11:54:52.678Z,3.20
2023-09-17T11:57:41.324Z,4.10
2023-09-17T12:00:31.206Z,4.90
2023-09-17T12:03:20.042Z,3.70
2023-09-17T12:06:09.480Z,6.50
2023-09-17T12:09:06.879Z,4.80
2023-09-17T12:11:56.346Z,4.20
2023-09-17T12:14:45.939Z,5.60
2023-09-17T12:17:43.739Z,3.60
2023-09-17T12:20:58.167Z,4.70
2023-09-17T12:23:55.996Z,4.30
2023-09-17T12:27:07.537Z,3.60
2023-09-17T12:29:57.405Z,5.40
2023-09-17T12:32:46.150Z,4.20
2023-09-17T12:35:36.937Z,4.70
2023-09-17T12:38:26.381Z,4.20
2023-09-17T12:41:22.253Z,3.90
2023-09-17T12:44:19.644Z,4.90
2023-09-17T12:47:09.461Z,4.50
2023-09-17T12:50:00.842Z,7.60
2023-09-17T12:52:49.642Z,3.40
2023-09-17T12:55:39.408Z,5.60
2023-09-17T12:58:28.294Z,10.90
2023-09-17T13:01:18.400Z,3.30
2023-09-17T13:04:07.934Z,3.30
2023-09-17T13:06:58.401Z,6.70
2023-09-17T13:09:48.342Z,3.80
2023-09-17T13:12:37.308Z,3.70
2023-09-17T13:15:26.217Z,4.20
2023-09-17T13:18:15.528Z,2.90
2023-09-17T13:21:07.645Z,3.10
2023-09-17T13:24:01.970Z,3.90
2023-09-17T13:26:51.452Z,3.90
2023-09-17T13:29:43.432Z,4.00
2023-09-17T13:32:32.746Z,7.70
2023-09-17T13:35:25.083Z,5.70
2023-09-17T13:38:14.439Z,6.50
2023-09-17T13:41:04.349Z,8.60
2023-09-17T13:43:53.219Z,3.70
2023-09-17T13:46:48.543Z,4.70
2023-09-17T13:49:37.709Z,2.90
2023-09-17T13:52:26.935Z,4.00
2023-09-17T13:55:16.848Z,4.10
2023-09-17T13:58:05.793Z,7.70
2023-09-17T14:00:55.111Z,5.70
2023-09-17T14:03:43.930Z,4.10
2023-09-17T14:06:35.791Z,3.30
2023-09-17T14:09:25.629Z,3.30
2023-09-17T14:12:14.650Z,3.70
2023-09-17T14:15:03.311Z,5.10
2023-09-17T14:17:51.974Z,6.20
2023-09-17T14:20:40.564Z,6.60
2023-09-17T14:23:29.087Z,6.40
2023-09-17T14:26:17.768Z,3.40
2023-09-17T14:29:06.520Z,3.90
2023-09-17T14:31:55.330Z,5.00
2023-09-17T14:34:44.064Z,5.30
2023-09-17T14:37:32.957Z,4.90
2023-09-17T14:40:22.172Z,4.80
2023-09-17T14:43:12.367Z,4.80
2023-09-17T14:46:00.938Z,4.50
2023-09-17T14:48:52.438Z,11.00
2023-09-17T14:51:41.165Z,6.00
2023-09-17T14:54:29.687Z,5.20
2023-09-17T14:57:18.213Z,8.60
2023-09-17T15:00:07.809Z,58.90
2023-09-17T15:02:56.455Z,11.30
2023-09-17T15:05:45.127Z,7.00
2023-09-17T15:08:33.696Z,4.20
2023-09-17T15:11:22.830Z,6.00
2023-09-17T15:14:11.369Z,6.70
2023-09-17T15:16:59.984Z,4.50
2023-09-17T15:19:48.669Z,7.80
2023-09-17T15:22:38.538Z,4.80
2023-09-17T15:25:27.215Z,5.90
2023-09-17T15:28:15.742Z,8.00
2023-09-17T15:31:05.827Z,9.10
2023-09-17T15:33:54.729Z,3.70
2023-09-17T15:36:43.644Z,11.50
2023-09-17T15:39:32.241Z,8.50
2023-09-17T15:42:20.748Z,10.10
2023-09-17T15:45:09.601Z,6.40
2023-09-17T15:47:58.509Z,10.30
2023-09-17T15:50:47.508Z,4.60
2023-09-17T15:53:36.043Z,6.90
2023-09-17T15:56:24.521Z,11.40
2023-09-17T15:59:13.119Z,4.30
2023-09-17T16:02:01.684Z,7.00
2023-09-17T16:04:51.412Z,6.20
2023-09-17T16:07:48.576Z,4.30
2023-09-17T16:10:37.936Z,3.10
2023-09-17T16:13:26.476Z,5.70
2023-09-17T16:16:15.247Z,7.00
2023-09-17T16:19:03.824Z,3.20
2023-09-17T16:21:52.363Z,3.40
2023-09-17T16:24:41.629Z,3.10
2023-09-17T16:27:30.806Z,4.70
2023-09-17T16:30:20.446Z,4.70
2023-09-17T16:33:09.336Z,6.60
2023-09-17T16:36:00.754Z,3.10
2023-09-17T16:38:49.276Z,4.30
2023-09-17T16:41:37.790Z,3.90
2023-09-17T16:44:27.309Z,3.50
2023-09-17T16:47:16.584Z,3.70
2023-09-17T16:50:05.716Z,4.90
2023-09-17T16:52:54.260Z,4.10
2023-09-17T16:55:42.938Z,3.40
2023-09-17T16:58:31.574Z,7.30
2023-09-17T17:01:20.150Z,3.70
2023-09-17T17:04:08.802Z,3.90
2023-09-17T17:06:57.567Z,3.80
2023-09-17T17:09:46.108Z,4.70
2023-09-17T17:12:35.379Z,3.90
2023-09-17T17:15:23.910Z,3.30
2023-09-17T17:18:12.781Z,3.10
2023-09-17T17:21:03.840Z,3.40
2023-09-17T17:23:52.578Z,3.60
2023-09-17T17:26:41.726Z,3.30
2023-09-17T17:29:30.630Z,3.70
2023-09-17T17:32:19.480Z,3.00
2023-09-17T17:35:09.066Z,3.60
2023-09-17T17:37:57.812Z,3.60
2023-09-17T17:40:46.462Z,3.40
2023-09-17T17:43:38.101Z,3.40
2023-09-17T17:46:26.896Z,3.50
2023-09-17T17:49:15.895Z,3.60
2023-09-17T17:52:05.137Z,3.60
2023-09-17T17:54:53.828Z,4.10
2023-09-17T17:57:42.450Z,3.90
2023-09-17T18:00:31.519Z,8.20
2023-09-17T18:03:20.202Z,4.80
2023-09-17T18:06:08.768Z,5.90
2023-09-17T18:08:57.862Z,5.10
2023-09-17T18:11:46.385Z,5.50
2023-09-17T18:14:36.015Z,4.10
2023-09-17T18:17:26.805Z,4.30
2023-09-17T18:20:17.927Z,6.30
2023-09-17T18:23:06.651Z,4.50
2023-09-17T18:25:55.823Z,4.80
2023-09-17T18:28:44.474Z,4.10
2023-09-17T18:31:33.679Z,6.00
2023-09-17T18:34:22.233Z,5.00
2023-09-17T18:37:11.082Z,5.10
2023-09-17T18:39:59.889Z,6.20
2023-09-17T18:42:48.714Z,6.10
2023-09-17T18:45:38.042Z,5.60
2023-09-17T18:48:26.835Z,5.40
2023-09-17T18:51:15.935Z,4.90
2023-09-17T18:54:04.916Z,4.60
2023-09-17T18:56:53.677Z,7.30
2023-09-17T18:59:42.435Z,8.00
2023-09-17T19:02:31.384Z,7.40
2023-09-17T19:05:21.206Z,5.60
2023-09-17T19:08:09.899Z,5.00
2023-09-17T19:10:58.705Z,6.90
2023-09-17T19:13:47.507Z,5.60
2023-09-17T19:16:36.579Z,5.70
2023-09-17T19:19:25.118Z,6.10
2023-09-17T19:22:13.895Z,5.40
2023-09-17T19:25:02.572Z,6.90
2023-09-17T19:27:51.663Z,7.40
2023-09-17T19:30:40.208Z,7.00
2023-09-17T19:33:29.516Z,6.70
2023-09-17T19:36:20.244Z,7.20
2023-09-17T19:39:09.253Z,7.70
2023-09-17T19:41:58.556Z,9.00
2023-09-17T19:44:47.861Z,7.30
2023-09-17T19:47:37.209Z,9.30
2023-09-17T19:50:26.959Z,9.20
2023-09-17T19:53:16.591Z,8.60
2023-09-17T19:56:05.312Z,7.20
2023-09-17T19:58:54.224Z,9.00
2023-09-17T20:01:45.327Z,8.30
2023-09-17T20:04:35.597Z,7.70
2023-09-17T20:07:25.752Z,9.60
2023-09-17T20:10:16.108Z,7.60
2023-09-17T20:13:04.784Z,8.30
2023-09-17T20:15:53.336Z,6.60
2023-09-17T20:18:42.990Z,7.60
2023-09-17T20:21:32.325Z,7.60
2023-09-17T20:24:20.970Z,6.30
2023-09-17T20:27:09.994Z,6.40
2023-09-17T20:29:58.475Z,9.00
2023-09-17T20:32:47.111Z,6.80
2023-09-17T20:35:38.120Z,7.70
2023-09-17T20:38:26.834Z,8.30
2023-09-17T20:41:15.507Z,6.60
2023-09-17T20:44:04.239Z,7.00
2023-09-17T20:46:52.838Z,8.50
2023-09-17T20:49:41.367Z,6.00
2023-09-17T20:52:29.967Z,6.70
2023-09-17T20:55:18.639Z,9.10
2023-09-17T20:58:07.199Z,7.30
2023-09-17T21:00:55.743Z,8.60
2023-09-17T21:03:45.738Z,7.30
2023-09-17T21:06:34.735Z,7.90
2023-09-17T21:09:27.357Z,8.50
2023-09-17T21:12:16.070Z,9.20
2023-09-17T21:15:06.884Z,8.60
2023-09-17T21:20:46.152Z,8.50
2023-09-17T21:23:36.867Z,8.60
2023-09-17T21:26:25.828Z,8.60
2023-09-17T21:29:15.008Z,7.60
2023-09-17T21:32:04.334Z,7.50
2023-09-17T21:34:53.024Z,7.70
2023-09-17T21:37:41.566Z,7.20
2023-09-17T21:40:30.440Z,7.00
2023-09-17T21:43:19.047Z,8.40
2023-09-17T21:46:07.615Z,8.20
2023-09-17T21:48:59.161Z,7.60
2023-09-17T21:51:47.962Z,6.90
2023-09-17T21:54:36.578Z,6.60
2023-09-17T21:57:25.638Z,5.60
2023-09-17T22:00:22.576Z,8.10
2023-09-17T22:03:11.230Z,8.50
2023-09-17T22:06:04.901Z,6.90
2023-09-17T22:08:53.613Z,9.00
2023-09-17T22:11:42.388Z,7.80
2023-09-17T22:14:31.192Z,9.00
2023-09-17T22:17:20.462Z,8.30
2023-09-17T22:20:19.712Z,11.20
2023-09-17T22:23:08.512Z,7.10
2023-09-17T22:25:57.151Z,8.10
2023-09-17T22:28:45.859Z,8.50
2023-09-17T22:31:34.433Z,9.00
2023-09-17T22:34:22.907Z,6.90
2023-09-17T22:37:13.786Z,9.00
2023-09-17T22:42:58.183Z,9.70
2023-09-17T22:45:46.853Z,9.50
2023-09-17T22:48:35.400Z,9.60
2023-09-17T22:51:24.427Z,8.90
2023-09-17T22:54:13.138Z,9.60
2023-09-17T22:57:01.620Z,7.20
2023-09-17T22:59:50.660Z,8.10
2023-09-17T23:02:39.445Z,8.20
2023-09-17T23:05:28.638Z,7.90
2023-09-17T23:08:17.688Z,7.40
2023-09-17T23:11:06.952Z,9.20
2023-09-17T23:13:55.643Z,7.50
2023-09-17T23:16:45.625Z,8.80
2023-09-17T23:19:34.240Z,9.60
2023-09-17T23:22:22.761Z,6.60
2023-09-17T23:25:11.311Z,7.10
2023-09-17T23:27:59.796Z,7.30
2023-09-17T23:30:48.533Z,9.40
2023-09-17T23:33:37.189Z,7.60
2023-09-17T23:36:28.466Z,9.40
2023-09-17T23:39:17.095Z,8.30
2023-09-17T23:42:05.767Z,9.70
2023-09-17T23:44:55.020Z,8.70
2023-09-17T23:47:43.646Z,7.50
2023-09-17T23:50:32.234Z,8.10
2023-09-17T23:53:20.871Z,7.70
2023-09-17T23:56:09.513Z,8.30
2023-09-17T23:58:58.072Z,10.00
